createdAt,value
2023-01-05T00:00:02.367Z,100617.59
2023-01-05T00:03:03.917Z,100622.13
2023-01-05T00:06:08.105Z,100611.59
2023-01-05T00:09:12.913Z,100617.84
2023-01-05T00:12:32.839Z,100618.81
2023-01-05T00:15:52.988Z,100621.56
2023-01-05T00:19:13.154Z,100617.41
2023-01-05T00:22:32.424Z,100622.72
2023-01-05T00:25:38.901Z,100613.88
2023-01-05T00:28:40.453Z,100620.16
2023-01-05T00:31:42.018Z,100624.63
2023-01-05T00:34:43.624Z,100623.88
2023-01-05T00:37:45.667Z,100619.59
2023-01-05T00:40:47.255Z,100617.78
2023-01-05T00:43:48.780Z,100622.34
2023-01-05T00:46:50.353Z,100620.66
2023-01-05T00:49:51.874Z,100626.91
2023-01-05T00:52:54.088Z,100634.88
2023-01-05T00:55:59.964Z,100646.47
2023-01-05T00:59:01.524Z,100642.19
2023-01-05T01:02:03.634Z,100638.75
2023-01-05T01:05:06.189Z,100645.88
2023-01-05T01:08:07.778Z,100657.44
2023-01-05T01:11:10.331Z,100657.56
2023-01-05T01:14:13.723Z,100663.78
2023-01-05T01:17:16.847Z,100637.25
2023-01-05T01:20:19.045Z,100658.50
2023-01-05T01:23:20.569Z,100668.25
2023-01-05T01:26:22.322Z,100675.47
2023-01-05T01:29:25.115Z,100670.16
2023-01-05T01:32:26.686Z,100667.50
2023-01-05T01:35:28.243Z,100668.34
2023-01-05T01:38:29.774Z,100677.25
2023-01-05T01:41:31.611Z,100682.66
2023-01-05T01:44:59.903Z,100688.06
2023-01-05T01:48:01.769Z,100689.03
2023-01-05T01:51:10.920Z,100691.84
2023-01-05T01:54:15.846Z,100689.19
2023-01-05T01:57:17.796Z,100698.03
2023-01-05T02:00:21.371Z,100695.44
2023-01-05T02:03:23.096Z,100703.63
2023-01-05T02:06:24.680Z,100707.22
2023-01-05T02:09:26.835Z,100694.13
2023-01-05T02:12:46.274Z,100693.25
2023-01-05T02:16:03.498Z,100700.38
2023-01-05T02:19:23.337Z,100700.47
2023-01-05T02:22:37.057Z,100695.25
2023-01-05T02:26:05.654Z,100694.50
2023-01-05T02:29:33.530Z,100680.38
2023-01-05T02:32:37.978Z,100700.75
2023-01-05T02:35:39.562Z,100700.69
2023-01-05T02:38:51.606Z,100694.41
2023-01-05T02:41:56.008Z,100689.00
2023-01-05T02:44:57.601Z,100704.09
2023-01-05T02:47:59.203Z,100703.13
2023-01-05T02:51:06.337Z,100697.81
2023-01-05T02:54:18.600Z,100701.44
2023-01-05T02:57:45.299Z,100712.13
2023-01-05T03:00:58.198Z,100716.78
2023-01-05T03:04:01.870Z,100716.84
2023-01-05T03:07:07.885Z,100715.16
2023-01-05T03:10:30.673Z,100716.97
2023-01-05T03:13:42.979Z,100716.97
2023-01-05T03:16:48.103Z,100742.75
2023-01-05T03:19:51.062Z,100730.41
2023-01-05T03:23:14.051Z,100748.22
2023-01-05T03:26:34.538Z,100745.75
2023-01-05T03:29:54.470Z,100738.75
2023-01-05T03:33:31.084Z,100744.13
2023-01-05T03:36:43.208Z,100745.91
2023-01-05T03:39:47.320Z,100744.13
2023-01-05T03:42:49.056Z,100746.00
2023-01-05T03:45:57.706Z,100757.38
2023-01-05T03:48:59.402Z,100748.56
2023-01-05T03:52:00.958Z,100756.53
2023-01-05T03:55:02.493Z,100754.72
2023-01-05T03:58:04.068Z,100758.25
2023-01-05T04:01:06.214Z,100757.38
2023-01-05T04:04:07.836Z,100764.41
2023-01-05T04:07:09.531Z,100775.03
2023-01-05T04:10:11.464Z,100770.59
2023-01-05T04:13:13.208Z,100783.84
2023-01-05T04:16:14.969Z,100782.22
2023-01-05T04:19:17.092Z,100787.59
2023-01-05T04:22:23.680Z,100796.53
2023-01-05T04:25:28.623Z,100790.34
2023-01-05T04:28:30.202Z,100787.72
2023-01-05T04:31:32.081Z,100805.31
2023-01-05T04:34:33.773Z,100803.63
2023-01-05T04:37:35.341Z,100808.84
2023-01-05T04:40:36.900Z,100813.28
2023-01-05T04:43:38.510Z,100814.13
2023-01-05T04:46:40.131Z,100805.41
2023-01-05T04:49:41.792Z,100817.06
2023-01-05T04:52:43.378Z,100829.47
2023-01-05T04:55:45.623Z,100826.91
2023-01-05T04:58:47.195Z,100833.91
2023-01-05T05:01:48.828Z,100837.44
2023-01-05T05:04:50.560Z,100839.22
2023-01-05T05:07:52.178Z,100841.03
2023-01-05T05:10:53.771Z,100858.66
2023-01-05T05:13:55.297Z,100856.00
2023-01-05T05:16:57.232Z,100864.81
2023-01-05T05:19:58.800Z,100874.50
2023-01-05T05:23:00.645Z,100885.94
2023-01-05T05:26:02.238Z,100882.47
2023-01-05T05:29:03.787Z,100882.47
2023-01-05T05:32:05.402Z,100902.88
2023-01-05T05:35:07.468Z,100891.50
2023-01-05T05:38:09.133Z,100896.06
2023-01-05T05:41:10.976Z,100892.75
2023-01-05T05:44:12.568Z,100911.38
2023-01-05T05:47:14.208Z,100905.81
2023-01-05T05:50:15.939Z,100911.38
2023-01-05T05:53:17.545Z,100929.84
2023-01-05T05:56:19.800Z,100925.47
2023-01-05T05:59:21.453Z,100932.00
2023-01-05T06:02:23.052Z,100947.34
2023-01-05T06:05:24.703Z,100951.25
2023-01-05T06:08:27.214Z,100955.88
2023-01-05T06:11:28.799Z,100961.34
2023-01-05T06:14:30.461Z,100962.38
2023-01-05T06:17:32.115Z,100971.28
2023-01-05T06:20:33.854Z,100976.78
2023-01-05T06:23:35.585Z,100989.34
2023-01-05T06:26:37.395Z,100986.84
2023-01-05T06:29:38.986Z,100992.34
2023-01-05T06:32:40.838Z,100993.41
2023-01-05T06:35:42.412Z,101000.75
2023-01-05T06:38:44.208Z,101001.13
2023-01-05T06:41:45.745Z,101015.50
2023-01-05T06:44:47.281Z,101025.50
2023-01-05T06:47:48.815Z,101028.41
2023-01-05T06:50:50.399Z,101033.00
2023-01-05T06:53:51.931Z,101055.22
2023-01-05T06:56:53.580Z,101064.94
2023-01-05T06:59:55.128Z,101066.97
2023-01-05T07:02:56.663Z,101067.16
2023-01-05T07:05:58.254Z,101076.19
2023-01-05T07:09:00.157Z,101086.94
2023-01-05T07:12:01.806Z,101079.94
2023-01-05T07:15:03.989Z,101091.56
2023-01-05T07:18:05.606Z,101095.31
2023-01-05T07:21:07.627Z,101095.38
2023-01-05T07:24:09.779Z,101090.22
2023-01-05T07:27:11.585Z,101096.59
2023-01-05T07:30:13.573Z,101114.28
2023-01-05T07:33:15.291Z,101119.69
2023-01-05T07:36:16.971Z,101114.53
2023-01-05T07:39:19.542Z,101122.69
2023-01-05T07:42:21.245Z,101116.69
2023-01-05T07:45:23.465Z,101122.97
2023-01-05T07:48:25.299Z,101123.06
2023-01-05T07:51:26.959Z,101126.63
2023-01-05T07:54:28.558Z,101132.88
2023-01-05T07:57:31.549Z,101137.41
2023-01-05T08:00:33.126Z,101133.13
2023-01-05T08:03:34.794Z,101141.06
2023-01-05T08:06:36.489Z,101153.50
2023-01-05T08:09:57.653Z,101149.06
2023-01-05T08:13:22.881Z,101158.00
2023-01-05T08:16:24.523Z,101167.75
2023-01-05T08:19:26.259Z,101162.38
2023-01-05T08:22:27.864Z,101164.97
2023-01-05T08:25:29.822Z,101180.72
2023-01-05T08:28:35.474Z,101185.91
2023-01-05T08:31:39.391Z,101199.13
2023-01-05T08:34:41.030Z,101208.75
2023-01-05T08:37:46.089Z,101208.75
2023-01-05T08:40:47.673Z,101216.78
2023-01-05T08:43:51.890Z,101223.88
2023-01-05T08:46:53.553Z,101226.53
2023-01-05T08:49:55.470Z,101235.34
2023-01-05T08:52:57.478Z,101239.72
2023-01-05T08:55:59.332Z,101253.00
2023-01-05T08:59:00.877Z,101262.59
2023-01-05T09:02:02.647Z,101268.69
2023-01-05T09:05:04.602Z,101277.41
2023-01-05T09:08:06.174Z,101282.66
2023-01-05T09:11:12.364Z,101284.22
2023-01-05T09:14:15.324Z,101291.25
2023-01-05T09:17:16.971Z,101287.66
2023-01-05T09:20:18.859Z,101285.00
2023-01-05T09:23:20.424Z,101292.91
2023-01-05T09:26:21.981Z,101291.13
2023-01-05T09:29:23.580Z,101288.47
2023-01-05T09:32:25.227Z,101301.56
2023-01-05T09:35:26.801Z,101311.09
2023-01-05T09:38:29.898Z,101317.03
2023-01-05T09:41:37.557Z,101317.69
2023-01-05T09:44:58.812Z,101321.81
2023-01-05T09:48:01.431Z,101320.69
2023-01-05T09:51:03.052Z,101333.66
2023-01-05T09:54:04.875Z,101337.66
2023-01-05T09:57:13.588Z,101354.16
2023-01-05T10:00:17.219Z,101345.00
2023-01-05T10:04:01.960Z,101353.59
2023-01-05T10:06:50.147Z,101356.88
2023-01-05T10:09:55.272Z,101367.41
2023-01-05T10:13:07.065Z,101354.13
2023-01-05T10:16:16.300Z,101359.22
2023-01-05T10:19:20.486Z,101373.22
2023-01-05T10:22:22.324Z,101372.19
2023-01-05T10:25:28.015Z,101372.69
2023-01-05T10:28:34.073Z,101374.34
2023-01-05T10:31:55.035Z,101373.38
2023-01-05T10:35:34.055Z,101376.91
2023-01-05T10:38:45.725Z,101384.09
2023-01-05T10:41:58.909Z,101376.13
2023-01-05T10:45:03.682Z,101396.41
2023-01-05T10:48:13.819Z,101397.28
2023-01-05T10:51:15.393Z,101400.78
2023-01-05T10:54:29.840Z,101403.34
2023-01-05T10:57:38.454Z,101402.44
2023-01-05T11:00:42.611Z,101411.13
2023-01-05T11:04:24.306Z,101410.09
2023-01-05T11:07:08.788Z,101415.25
2023-01-05T11:10:23.394Z,101423.00
2023-01-05T11:13:41.975Z,101431.66
2023-01-05T11:17:06.337Z,101419.13
2023-01-05T11:20:17.048Z,101434.81
2023-01-05T11:23:35.344Z,101432.06
2023-01-05T11:26:38.177Z,101430.13
2023-01-05T11:29:39.897Z,101430.03
2023-01-05T11:32:45.668Z,101439.50
2023-01-05T11:35:47.478Z,101432.31
2023-01-05T11:38:56.262Z,101434.91
2023-01-05T11:42:16.398Z,101437.50
2023-01-05T11:45:25.186Z,101433.91
2023-01-05T11:48:32.204Z,101436.56
2023-01-05T11:51:39.867Z,101433.97
2023-01-05T11:54:41.464Z,101440.38
2023-01-05T11:57:43.078Z,101442.25
2023-01-05T12:01:02.956Z,101443.09
2023-01-05T12:04:35.105Z,101444.91
2023-01-05T12:07:43.007Z,101450.22
2023-01-05T12:10:59.774Z,101458.97
2023-01-05T12:14:04.057Z,101458.97
2023-01-05T12:17:13.902Z,101462.41
2023-01-05T12:20:53.110Z,101469.34
2023-01-05T12:24:07.040Z,101474.66
2023-01-05T12:27:27.303Z,101470.22
2023-01-05T12:33:02.972Z,101481.72
2023-01-05T12:34:21.808Z,101471.09
2023-01-05T12:37:38.096Z,101474.66
2023-01-05T12:40:45.509Z,101474.56
2023-01-05T12:44:05.548Z,101478.09
2023-01-05T12:47:33.911Z,101474.66
2023-01-05T12:50:45.711Z,101484.41
2023-01-05T12:54:07.521Z,101491.59
2023-01-05T12:57:40.566Z,101493.41
2023-01-05T13:00:46.303Z,101499.66
2023-01-05T13:03:55.546Z,101497.19
2023-01-05T13:06:59.495Z,101508.81
2023-01-05T13:10:05.620Z,101509.00
2023-01-05T13:13:15.084Z,101515.38
2023-01-05T13:16:19.775Z,101517.16
2023-01-05T13:19:53.757Z,101520.78
2023-01-05T13:23:13.193Z,101519.25
2023-01-05T13:26:18.030Z,101521.22
2023-01-05T13:29:44.099Z,101526.66
2023-01-05T13:33:30.265Z,101528.53
2023-01-05T13:37:06.828Z,101540.16
2023-01-05T13:40:34.396Z,101539.53
2023-01-05T13:44:09.863Z,101526.91
2023-01-05T13:47:27.703Z,101527.03
2023-01-05T13:50:50.956Z,101545.84
2023-01-05T13:53:55.382Z,101544.34
2023-01-05T13:56:57.279Z,101562.25
2023-01-05T14:00:08.877Z,101568.56
2023-01-05T14:03:22.977Z,101574.00
2023-01-05T14:06:34.907Z,101567.16
2023-01-05T14:09:47.973Z,101578.09
2023-01-05T14:12:51.516Z,101583.63
2023-01-05T14:15:53.153Z,101579.44
2023-01-05T14:19:10.999Z,101577.78
2023-01-05T14:22:25.311Z,101570.97
2023-01-05T14:25:39.289Z,101569.41
2023-01-05T14:28:43.799Z,101586.44
2023-01-05T14:31:47.632Z,101589.22
2023-01-05T14:34:52.101Z,101598.19
2023-01-05T14:37:59.622Z,101606.22
2023-01-05T14:41:01.200Z,101601.97
2023-01-05T14:44:17.125Z,101612.66
2023-01-05T14:47:35.148Z,101615.47
2023-01-05T14:50:40.939Z,101604.13
2023-01-05T14:53:45.787Z,101620.25
2023-01-05T14:57:42.454Z,101614.28
2023-01-05T15:00:57.822Z,101620.84
2023-01-05T15:04:12.840Z,101626.19
2023-01-05T15:07:42.187Z,101632.44
2023-01-05T15:11:03.804Z,101620.19
2023-01-05T15:14:23.801Z,101631.63
2023-01-05T15:17:34.268Z,101618.44
2023-01-05T15:21:11.579Z,101628.25
2023-01-05T15:24:50.304Z,101622.00
2023-01-05T15:28:29.319Z,101628.38
2023-01-05T15:31:40.444Z,101621.53
2023-01-05T15:34:47.553Z,101627.91
2023-01-05T15:37:52.128Z,101629.81
2023-01-05T15:41:01.082Z,101628.16
2023-01-05T15:44:02.713Z,101634.28
2023-01-05T15:47:05.226Z,101630.69
2023-01-05T15:50:07.636Z,101644.94
2023-01-05T15:53:38.179Z,101645.91
2023-01-05T15:56:41.262Z,101639.03
2023-01-05T15:59:48.357Z,101639.22
2023-01-05T16:02:50.377Z,101649.97
2023-01-05T16:06:01.287Z,101647.53
2023-01-05T16:09:20.666Z,101643.38
2023-01-05T16:12:25.086Z,101640.06
2023-01-05T16:15:29.633Z,101645.56
2023-01-05T16:18:36.417Z,101649.28
2023-01-05T16:21:49.330Z,101648.59
2023-01-05T16:25:14.968Z,101655.88
2023-01-05T16:28:20.047Z,101648.09
2023-01-05T16:31:27.751Z,101649.97
2023-01-05T16:34:31.411Z,101647.44
2023-01-05T16:37:32.956Z,101642.22
2023-01-05T16:40:56.297Z,101644.06
2023-01-05T16:44:02.537Z,101644.09
2023-01-05T16:47:07.248Z,101641.47
2023-01-05T16:50:17.703Z,101643.31
2023-01-05T16:53:19.695Z,101636.25
2023-01-05T16:56:33.264Z,101631.81
2023-01-05T16:59:48.527Z,101640.59
2023-01-05T17:02:50.376Z,101631.81
2023-01-05T17:05:53.780Z,101632.59
2023-01-05T17:09:00.055Z,101633.34
2023-01-05T17:12:01.685Z,101634.16
2023-01-05T17:15:06.104Z,101642.84
2023-01-05T17:21:27.557Z,101642.59
2023-01-05T17:24:29.253Z,101640.69
2023-01-05T17:27:31.175Z,101629.06
2023-01-05T17:30:32.901Z,101635.94
2023-01-05T17:33:34.527Z,101632.31
2023-01-05T17:36:36.345Z,101632.25
2023-01-05T17:39:37.910Z,101625.06
2023-01-05T17:42:42.489Z,101636.41
2023-01-05T17:45:45.252Z,101627.50
2023-01-05T17:48:47.904Z,101638.84
2023-01-05T17:51:49.461Z,101637.72
2023-01-05T17:54:50.997Z,101631.28
2023-01-05T17:57:52.970Z,101638.94
2023-01-05T18:00:54.566Z,101634.44
2023-01-05T18:03:56.231Z,101623.47
2023-01-05T18:06:59.135Z,101631.81
2023-01-05T18:10:00.804Z,101639.53
2023-01-05T18:13:02.423Z,101645.50
2023-01-05T18:16:08.652Z,101633.03
2023-01-05T18:19:38.287Z,101627.53
2023-01-05T18:22:40.831Z,101622.09
2023-01-05T18:25:42.371Z,101627.22
2023-01-05T18:28:43.908Z,101624.47
2023-01-05T18:31:46.755Z,101626.13
2023-01-05T18:34:48.293Z,101619.03
2023-01-05T18:37:49.838Z,101624.19
2023-01-05T18:40:51.513Z,101625.84
2023-01-05T18:43:53.190Z,101620.41
2023-01-05T18:46:54.786Z,101621.06
2023-01-05T18:49:58.149Z,101620.94
2023-01-05T18:52:59.728Z,101618.16
2023-01-05T18:56:06.270Z,101617.19
2023-01-05T18:59:08.061Z,101603.09
2023-01-05T19:02:14.028Z,101609.31
2023-01-05T19:05:15.601Z,101607.78
2023-01-05T19:08:17.173Z,101607.78
2023-01-05T19:11:27.567Z,101610.41
2023-01-05T19:14:29.840Z,101620.00
2023-01-05T19:17:33.715Z,101611.06
2023-01-05T19:20:35.333Z,101612.75
2023-01-05T19:23:36.981Z,101615.28
2023-01-05T19:26:38.592Z,101614.28
2023-01-05T19:29:40.141Z,101615.94
2023-01-05T19:32:41.681Z,101610.56
2023-01-05T19:35:43.227Z,101623.69
2023-01-05T19:38:45.889Z,101620.13
2023-01-05T19:41:49.001Z,101619.16
2023-01-05T19:44:51.419Z,101619.13
2023-01-05T19:47:52.970Z,101604.84
2023-01-05T19:51:02.194Z,101606.56
2023-01-05T19:54:05.341Z,101601.25
2023-01-05T19:57:07.003Z,101587.06
2023-01-05T20:00:09.198Z,101584.47
2023-01-05T20:03:10.816Z,101577.50
2023-01-05T20:06:20.893Z,101574.13
2023-01-05T20:09:22.678Z,101571.63
2023-01-05T20:12:24.221Z,101571.84
2023-01-05T20:15:25.778Z,101576.34
2023-01-05T20:18:27.322Z,101571.09
2023-01-05T20:21:29.127Z,101577.34
2023-01-05T20:24:32.765Z,101571.09
2023-01-05T20:27:34.871Z,101571.09
2023-01-05T20:30:36.449Z,101575.47
2023-01-05T20:33:38.042Z,101571.03
2023-01-05T20:36:40.543Z,101570.09
2023-01-05T20:39:42.359Z,101572.75
2023-01-05T20:42:44.172Z,101577.00
2023-01-05T20:45:45.691Z,101565.56
2023-01-05T20:48:49.688Z,101560.34
2023-01-05T20:51:51.479Z,101562.31
2023-01-05T20:54:55.401Z,101565.78
2023-01-05T20:57:57.008Z,101557.78
2023-01-05T21:01:10.136Z,101557.69
2023-01-05T21:04:13.505Z,101563.88
2023-01-05T21:07:15.166Z,101562.22
2023-01-05T21:10:16.837Z,101564.09
2023-01-05T21:13:30.971Z,101569.53
2023-01-05T21:16:48.621Z,101551.94
2023-01-05T21:19:50.254Z,101556.69
2023-01-05T21:22:53.000Z,101555.16
2023-01-05T21:26:06.666Z,101550.97
2023-01-05T21:29:11.941Z,101545.00
2023-01-05T21:32:13.544Z,101545.13
2023-01-05T21:35:15.113Z,101553.06
2023-01-05T21:38:16.660Z,101541.47
2023-01-05T21:41:39.060Z,101548.38
2023-01-05T21:44:41.182Z,101544.69
2023-01-05T21:47:42.746Z,101540.13
2023-01-05T21:51:02.825Z,101537.38
2023-01-05T21:54:23.071Z,101532.00
2023-01-05T21:57:24.975Z,101535.53
2023-01-05T22:00:27.216Z,101528.28
2023-01-05T22:03:29.742Z,101523.00
2023-01-05T22:06:31.771Z,101515.81
2023-01-05T22:09:36.793Z,101499.81
2023-01-05T22:12:38.382Z,101497.97
2023-01-05T22:15:39.922Z,101494.38
2023-01-05T22:18:41.503Z,101493.47
2023-01-05T22:21:43.029Z,101493.47
2023-01-05T22:24:44.673Z,101489.06
2023-01-05T22:27:46.446Z,101495.03
2023-01-05T22:30:47.977Z,101501.91
2023-01-05T22:33:52.529Z,101492.03
2023-01-05T22:36:54.140Z,101477.94
2023-01-05T22:39:55.740Z,101478.88
2023-01-05T22:42:57.305Z,101478.94
2023-01-05T22:46:03.813Z,101487.91
2023-01-05T22:49:05.625Z,101470.28
2023-01-05T22:52:07.239Z,101472.06
2023-01-05T22:55:09.114Z,101464.97
2023-01-05T22:58:11.140Z,101463.25
2023-01-05T23:01:37.292Z,101470.16
2023-01-05T23:04:38.803Z,101468.28
2023-01-05T23:07:41.589Z,101450.63
2023-01-05T23:10:43.182Z,101446.25
2023-01-05T23:13:45.112Z,101442.72
2023-01-05T23:16:47.330Z,101442.06
2023-01-05T23:19:48.927Z,101430.59
2023-01-05T23:22:50.630Z,101421.69
2023-01-05T23:25:52.706Z,101426.13
2023-01-05T23:28:54.546Z,101432.44
2023-01-05T23:31:56.258Z,101418.38
2023-01-05T23:34:57.774Z,101419.34
2023-01-05T23:37:59.326Z,101422.06
2023-01-05T23:41:05.853Z,101413.31
2023-01-05T23:44:08.148Z,101413.31
2023-01-05T23:47:09.795Z,101408.94
2023-01-05T23:50:11.319Z,101397.47
2023-01-05T23:53:13.667Z,101399.19
2023-01-05T23:56:16.914Z,101396.53
2023-01-05T23:59:18.549Z,101390.34
